createdAt,value
2023-04-16T00:00:38.346Z,43.63
2023-04-16T00:03:05.160Z,43.57
2023-04-16T00:05:31.898Z,43.78
2023-04-16T00:07:58.451Z,43.40
2023-04-16T00:10:25.005Z,44.01
2023-04-16T00:12:51.536Z,43.67
2023-04-16T00:15:18.103Z,44.09
2023-04-16T00:17:45.176Z,44.12
2023-04-16T00:20:11.885Z,43.78
2023-04-16T00:22:38.411Z,43.93
2023-04-16T00:25:05.557Z,44.12
2023-04-16T00:27:32.205Z,43.58
2023-04-16T00:29:58.702Z,44.26
2023-04-16T00:32:25.369Z,43.55
2023-04-16T00:34:51.874Z,43.53
2023-04-16T00:37:18.427Z,44.05
2023-04-16T00:39:44.911Z,44.14
2023-04-16T00:42:11.519Z,44.20
2023-04-16T00:44:38.081Z,43.59
2023-04-16T00:47:04.936Z,44.28
2023-04-16T00:49:31.853Z,44.16
2023-04-16T00:51:58.421Z,43.82
2023-04-16T00:54:25.405Z,43.61
2023-04-16T00:56:52.045Z,43.89
2023-04-16T00:59:19.824Z,43.95
2023-04-16T01:01:46.413Z,43.92
2023-04-16T01:04:13.230Z,43.56
2023-04-16T01:06:39.860Z,44.10
2023-04-16T01:09:06.575Z,43.80
2023-04-16T01:11:33.226Z,44.47
2023-04-16T01:13:59.786Z,44.58
2023-04-16T01:16:26.874Z,44.39
2023-04-16T01:18:53.590Z,44.38
2023-04-16T01:21:20.078Z,44.02
2023-04-16T01:23:46.576Z,44.22
2023-04-16T01:26:13.097Z,44.36
2023-04-16T01:28:40.521Z,44.25
2023-04-16T01:31:07.125Z,44.04
2023-04-16T01:33:33.685Z,44.34
2023-04-16T01:36:00.266Z,44.02
2023-04-16T01:38:26.765Z,44.35
2023-04-16T01:41:00.254Z,44.34
2023-04-16T01:43:26.842Z,44.30
2023-04-16T01:46:11.083Z,44.43
2023-04-16T01:48:37.741Z,44.53
2023-04-16T01:51:05.031Z,44.36
2023-04-16T01:53:31.646Z,44.51
2023-04-16T01:55:58.120Z,44.33
2023-04-16T01:58:24.891Z,44.19
2023-04-16T02:00:51.447Z,43.87
2023-04-16T02:03:18.702Z,43.93
2023-04-16T02:05:45.364Z,44.44
2023-04-16T02:08:11.856Z,44.48
2023-04-16T02:10:38.391Z,44.66
2023-04-16T02:13:05.032Z,44.42
2023-04-16T02:15:31.561Z,43.69
2023-04-16T02:17:58.215Z,43.95
2023-04-16T02:20:24.817Z,44.13
2023-04-16T02:22:51.327Z,43.84
2023-04-16T02:25:17.957Z,43.74
2023-04-16T02:27:44.478Z,44.06
2023-04-16T02:30:11.524Z,44.25
2023-04-16T02:32:38.034Z,44.29
2023-04-16T02:35:04.972Z,44.70
2023-04-16T02:37:31.496Z,44.17
2023-04-16T02:39:57.987Z,43.92
2023-04-16T02:42:24.688Z,44.40
2023-04-16T02:44:51.214Z,43.93
2023-04-16T02:47:17.730Z,44.55
2023-04-16T02:49:44.498Z,44.50
2023-04-16T02:52:11.088Z,44.15
2023-04-16T02:54:37.660Z,44.11
2023-04-16T02:57:04.278Z,44.12
2023-04-16T02:59:30.765Z,44.79
2023-04-16T03:01:57.336Z,44.30
2023-04-16T03:04:23.972Z,44.68
2023-04-16T03:06:50.509Z,44.14
2023-04-16T03:09:17.328Z,44.26
2023-04-16T03:11:43.889Z,44.55
2023-04-16T03:14:10.449Z,43.99
2023-04-16T03:16:36.976Z,44.43
2023-04-16T03:19:03.614Z,44.22
2023-04-16T03:21:30.140Z,44.68
2023-04-16T03:23:57.153Z,44.66
2023-04-16T03:26:23.704Z,44.68
2023-04-16T03:28:50.226Z,44.18
2023-04-16T03:31:16.976Z,44.66
2023-04-16T03:33:43.593Z,44.89
2023-04-16T03:36:10.363Z,44.78
2023-04-16T03:38:36.916Z,45.07
2023-04-16T03:41:03.609Z,44.72
2023-04-16T03:43:30.316Z,44.14
2023-04-16T03:45:57.175Z,45.05
2023-04-16T03:48:23.706Z,44.80
2023-04-16T03:50:50.324Z,44.78
2023-04-16T03:53:16.957Z,44.92
2023-04-16T03:55:43.628Z,44.99
2023-04-16T03:58:10.201Z,44.53
2023-04-16T04:00:36.880Z,44.47
2023-04-16T04:03:03.499Z,44.97
2023-04-16T04:05:30.280Z,44.40
2023-04-16T04:07:56.898Z,45.10
2023-04-16T04:10:23.383Z,44.89
2023-04-16T04:12:49.940Z,44.41
2023-04-16T04:15:16.551Z,44.43
2023-04-16T04:17:43.296Z,44.50
2023-04-16T04:20:10.462Z,44.92
2023-04-16T04:22:37.028Z,44.96
2023-04-16T04:25:03.710Z,44.95
2023-04-16T04:27:30.336Z,44.86
2023-04-16T04:29:56.946Z,44.46
2023-04-16T04:32:23.531Z,44.56
2023-04-16T04:34:50.350Z,44.61
2023-04-16T04:37:16.878Z,45.01
2023-04-16T04:39:43.416Z,44.91
2023-04-16T04:42:10.007Z,44.66
2023-04-16T04:44:36.592Z,45.26
2023-04-16T04:47:03.159Z,44.65
2023-04-16T04:49:30.737Z,44.42
2023-04-16T04:51:57.252Z,44.62
2023-04-16T04:54:23.785Z,44.79
2023-04-16T04:56:52.553Z,44.18
2023-04-16T04:59:23.119Z,44.83
2023-04-16T05:01:50.350Z,44.48
2023-04-16T05:04:17.379Z,44.75
2023-04-16T05:06:44.224Z,44.50
2023-04-16T05:09:12.008Z,44.60
2023-04-16T05:11:39.265Z,44.36
2023-04-16T05:14:05.848Z,44.67
2023-04-16T05:16:32.455Z,44.96
2023-04-16T05:18:59.109Z,44.67
2023-04-16T05:21:26.404Z,44.72
2023-04-16T05:23:53.038Z,44.51
2023-04-16T05:26:19.620Z,44.44
2023-04-16T05:28:46.437Z,44.58
2023-04-16T05:31:13.023Z,44.86
2023-04-16T05:33:39.553Z,43.85
2023-04-16T05:36:06.472Z,43.90
2023-04-16T05:38:32.951Z,43.92
2023-04-16T05:40:59.546Z,44.28
2023-04-16T05:43:26.019Z,44.25
2023-04-16T05:45:52.625Z,44.07
2023-04-16T05:48:20.097Z,44.22
2023-04-16T05:50:46.702Z,43.78
2023-04-16T05:53:14.256Z,44.46
2023-04-16T05:55:40.863Z,43.92
2023-04-16T05:58:07.408Z,43.88
2023-04-16T06:00:34.084Z,44.16
2023-04-16T06:03:00.938Z,44.49
2023-04-16T06:05:27.893Z,45.03
2023-04-16T06:07:54.484Z,44.38
2023-04-16T06:10:21.079Z,45.05
2023-04-16T06:12:47.791Z,44.96
2023-04-16T06:15:14.466Z,44.57
2023-04-16T06:17:41.281Z,44.59
2023-04-16T06:20:08.265Z,44.98
2023-04-16T06:22:34.806Z,45.62
2023-04-16T06:25:01.398Z,45.16
2023-04-16T06:27:27.960Z,44.85
2023-04-16T06:29:54.536Z,45.28
2023-04-16T06:32:21.161Z,45.19
2023-04-16T06:34:47.720Z,45.61
2023-04-16T06:37:14.963Z,44.84
2023-04-16T06:39:41.532Z,45.49
2023-04-16T06:42:08.126Z,45.46
2023-04-16T06:44:35.682Z,44.92
2023-04-16T06:47:02.320Z,44.96
2023-04-16T06:49:28.974Z,45.04
2023-04-16T06:51:56.255Z,45.84
2023-04-16T06:54:22.782Z,45.84
2023-04-16T06:56:49.292Z,45.43
2023-04-16T06:59:15.833Z,45.98
2023-04-16T07:01:42.656Z,46.08
2023-04-16T07:04:09.406Z,45.66
2023-04-16T07:06:36.120Z,45.68
2023-04-16T07:09:02.664Z,45.63
2023-04-16T07:11:29.342Z,45.53
2023-04-16T07:13:56.810Z,46.25
2023-04-16T07:16:23.648Z,45.86
2023-04-16T07:18:50.361Z,46.57
2023-04-16T07:21:17.000Z,45.97
2023-04-16T07:23:43.519Z,46.14
2023-04-16T07:26:11.536Z,46.42
2023-04-16T07:28:38.131Z,46.09
2023-04-16T07:31:04.814Z,45.71
2023-04-16T07:33:31.322Z,46.45
2023-04-16T07:35:57.885Z,46.49
2023-04-16T07:38:24.421Z,46.11
2023-04-16T07:40:51.350Z,46.77
2023-04-16T07:43:17.845Z,45.88
2023-04-16T07:45:44.361Z,46.51
2023-04-16T07:48:11.222Z,46.00
2023-04-16T07:50:37.826Z,45.68
2023-04-16T07:53:05.863Z,45.95
2023-04-16T07:55:32.434Z,45.91
2023-04-16T07:57:58.994Z,46.05
2023-04-16T08:00:26.331Z,46.18
2023-04-16T08:02:53.013Z,45.96
2023-04-16T08:05:19.844Z,45.57
2023-04-16T08:07:46.460Z,45.84
2023-04-16T08:10:13.142Z,45.36
2023-04-16T08:12:39.897Z,45.65
2023-04-16T08:15:07.425Z,46.08
2023-04-16T08:17:34.876Z,45.59
2023-04-16T08:20:01.770Z,45.34
2023-04-16T08:22:28.389Z,45.17
2023-04-16T08:24:55.100Z,45.61
2023-04-16T08:27:21.615Z,45.28
2023-04-16T08:29:48.622Z,45.24
2023-04-16T08:32:15.247Z,45.21
2023-04-16T08:34:41.971Z,45.67
2023-04-16T08:37:08.776Z,45.68
2023-04-16T08:39:35.524Z,45.03
2023-04-16T08:42:04.670Z,45.74
2023-04-16T08:44:33.758Z,45.75
2023-04-16T08:47:02.279Z,45.10
2023-04-16T08:49:29.487Z,45.81
2023-04-16T08:51:57.048Z,46.07
2023-04-16T08:54:43.217Z,45.49
2023-04-16T08:57:12.555Z,45.36
2023-04-16T08:59:40.385Z,45.58
2023-04-16T09:02:07.389Z,46.30
2023-04-16T09:04:34.455Z,45.51
2023-04-16T09:07:04.559Z,46.13
2023-04-16T09:09:33.436Z,46.26
2023-04-16T09:12:01.336Z,45.89
2023-04-16T09:14:28.730Z,46.20
2023-04-16T09:16:56.127Z,45.95
2023-04-16T09:19:23.705Z,46.25
2023-04-16T09:21:51.105Z,46.20
2023-04-16T09:24:18.577Z,45.85
2023-04-16T09:26:45.418Z,46.22
2023-04-16T09:29:12.259Z,46.04
2023-04-16T09:31:38.934Z,45.75
2023-04-16T09:34:08.502Z,46.12
2023-04-16T09:36:36.298Z,46.09
2023-04-16T09:39:03.922Z,46.47
2023-04-16T09:41:32.716Z,45.79
2023-04-16T09:44:04.609Z,46.19
2023-04-16T09:46:35.615Z,46.18
2023-04-16T09:49:19.992Z,46.46
2023-04-16T09:51:49.661Z,46.22
2023-04-16T09:54:16.491Z,45.80
2023-04-16T09:56:44.776Z,45.87
2023-04-16T09:59:21.749Z,45.46
2023-04-16T10:01:49.949Z,46.03
2023-04-16T10:04:17.038Z,45.96
2023-04-16T10:06:44.120Z,46.03
2023-04-16T10:09:11.109Z,46.00
2023-04-16T10:11:37.917Z,45.59
2023-04-16T10:14:04.522Z,45.63
2023-04-16T10:16:31.312Z,46.16
2023-04-16T10:18:59.130Z,45.91
2023-04-16T10:21:33.579Z,46.19
2023-04-16T10:24:00.606Z,46.26
2023-04-16T10:26:29.424Z,45.64
2023-04-16T10:28:58.358Z,46.01
2023-04-16T10:31:26.261Z,45.61
2023-04-16T10:33:53.280Z,46.27
2023-04-16T10:36:29.099Z,46.16
2023-04-16T10:39:00.666Z,46.25
2023-04-16T10:41:27.673Z,46.44
2023-04-16T10:44:05.850Z,46.55
2023-04-16T10:46:43.605Z,46.60
2023-04-16T10:49:19.235Z,46.26
2023-04-16T10:51:57.028Z,46.11
2023-04-16T10:54:28.808Z,46.08
2023-04-16T10:57:02.226Z,46.03
2023-04-16T10:59:32.174Z,46.19
2023-04-16T11:02:01.536Z,46.00
2023-04-16T11:04:33.232Z,45.99
2023-04-16T11:07:13.984Z,45.72
2023-04-16T11:10:05.048Z,45.64
2023-04-16T11:12:42.434Z,46.03
2023-04-16T11:15:13.410Z,46.25
2023-04-16T11:17:45.705Z,45.87
2023-04-16T11:20:26.207Z,45.81
2023-04-16T11:22:56.653Z,46.28
2023-04-16T11:25:25.083Z,46.26
2023-04-16T11:27:52.594Z,45.84
2023-04-16T11:30:28.367Z,45.68
2023-04-16T11:32:55.320Z,45.96
2023-04-16T11:35:22.051Z,45.99
2023-04-16T11:37:48.836Z,46.32
2023-04-16T11:40:15.529Z,46.36
2023-04-16T11:42:42.783Z,46.59
2023-04-16T11:45:11.281Z,46.28
2023-04-16T11:47:56.837Z,46.46
2023-04-16T11:50:25.681Z,45.84
2023-04-16T11:52:54.241Z,45.99
2023-04-16T11:55:21.670Z,46.17
2023-04-16T11:57:48.753Z,46.38
2023-04-16T12:00:15.989Z,45.92
2023-04-16T12:02:50.940Z,46.18
2023-04-16T12:05:35.205Z,45.95
2023-04-16T12:08:03.833Z,46.09
2023-04-16T12:10:32.287Z,46.33
2023-04-16T12:13:12.197Z,46.04
2023-04-16T12:15:49.666Z,46.11
2023-04-16T12:18:21.370Z,45.70
2023-04-16T12:20:47.997Z,45.59
2023-04-16T12:23:28.995Z,46.34
2023-04-16T12:25:59.602Z,46.11
2023-04-16T12:28:38.378Z,46.52
2023-04-16T12:31:05.834Z,46.56
2023-04-16T12:33:32.680Z,46.02
2023-04-16T12:35:59.294Z,45.79
2023-04-16T12:38:26.890Z,46.62
2023-04-16T12:40:57.002Z,46.56
2023-04-16T12:43:24.093Z,46.70
2023-04-16T12:45:50.639Z,46.56
2023-04-16T12:48:17.193Z,46.57
2023-04-16T12:50:44.376Z,46.71
2023-04-16T12:53:11.686Z,47.23
2023-04-16T12:55:38.329Z,47.26
2023-04-16T12:58:04.959Z,47.68
2023-04-16T13:00:31.542Z,47.64
2023-04-16T13:02:58.177Z,47.39
2023-04-16T13:05:24.853Z,47.92
2023-04-16T13:07:51.482Z,47.96
2023-04-16T13:10:18.102Z,47.61
2023-04-16T13:12:46.525Z,47.60
2023-04-16T13:15:13.075Z,47.78
2023-04-16T13:17:39.603Z,47.81
2023-04-16T13:20:06.586Z,47.63
2023-04-16T13:22:33.639Z,47.99
2023-04-16T13:25:00.398Z,47.40
2023-04-16T13:27:26.939Z,48.01
2023-04-16T13:29:53.728Z,47.17
2023-04-16T13:32:20.398Z,47.51
2023-04-16T13:34:47.155Z,47.63
2023-04-16T13:37:13.883Z,47.56
2023-04-16T13:39:40.605Z,47.04
2023-04-16T13:42:07.194Z,47.04
2023-04-16T13:44:33.889Z,47.28
2023-04-16T13:47:00.798Z,47.13
2023-04-16T13:49:27.381Z,47.27
2023-04-16T13:51:53.912Z,46.64
2023-04-16T13:54:20.528Z,47.10
2023-04-16T13:56:47.078Z,47.11
2023-04-16T13:59:15.619Z,46.58
2023-04-16T14:01:42.310Z,46.50
2023-04-16T14:04:08.879Z,46.56
2023-04-16T14:06:35.502Z,46.87
2023-04-16T14:09:02.201Z,46.48
2023-04-16T14:11:28.969Z,46.70
2023-04-16T14:13:55.588Z,46.69
2023-04-16T14:16:22.231Z,46.22
2023-04-16T14:18:48.787Z,46.84
2023-04-16T14:21:15.662Z,46.59
2023-04-16T14:23:42.286Z,46.54
2023-04-16T14:26:08.892Z,46.44
2023-04-16T14:28:35.799Z,46.63
2023-04-16T14:31:02.523Z,46.43
2023-04-16T14:33:29.260Z,46.02
2023-04-16T14:35:55.951Z,46.65
2023-04-16T14:38:22.513Z,45.97
2023-04-16T14:40:49.055Z,46.48
2023-04-16T14:43:15.666Z,46.44
2023-04-16T14:45:42.300Z,46.57
2023-04-16T14:48:08.854Z,45.96
2023-04-16T14:50:38.938Z,46.02
2023-04-16T14:53:05.972Z,46.56
2023-04-16T14:55:32.813Z,46.45
2023-04-16T14:57:59.911Z,46.71
2023-04-16T15:00:27.358Z,46.37
2023-04-16T15:02:54.766Z,46.18
2023-04-16T15:05:22.143Z,46.70
2023-04-16T15:07:48.670Z,47.01
2023-04-16T15:10:15.499Z,46.40
2023-04-16T15:12:42.183Z,46.51
2023-04-16T15:15:09.539Z,46.68
2023-04-16T15:17:36.381Z,47.04
2023-04-16T15:20:05.923Z,46.66
2023-04-16T15:22:32.549Z,46.59
2023-04-16T15:24:59.029Z,46.91
2023-04-16T15:27:25.868Z,47.26
2023-04-16T15:29:53.924Z,46.88
2023-04-16T15:32:20.725Z,47.21
2023-04-16T15:34:47.288Z,47.55
2023-04-16T15:37:13.909Z,46.83
2023-04-16T15:39:40.786Z,47.50
2023-04-16T15:42:08.106Z,47.06
2023-04-16T15:44:34.779Z,46.85
2023-04-16T15:47:01.306Z,47.46
2023-04-16T15:49:27.995Z,46.57
2023-04-16T15:51:55.526Z,46.67
2023-04-16T15:54:22.422Z,46.61
2023-04-16T15:56:49.083Z,47.17
2023-04-16T15:59:16.050Z,46.61
2023-04-16T16:01:42.582Z,47.23
2023-04-16T16:04:09.586Z,47.02
2023-04-16T16:06:38.074Z,46.88
2023-04-16T16:09:04.995Z,46.72
2023-04-16T16:11:32.628Z,46.39
2023-04-16T16:14:01.367Z,47.11
2023-04-16T16:16:28.581Z,46.82
2023-04-16T16:18:55.317Z,46.91
2023-04-16T16:21:22.034Z,46.97
2023-04-16T16:23:48.599Z,46.34
2023-04-16T16:26:15.157Z,47.20
2023-04-16T16:28:43.776Z,47.16
2023-04-16T16:31:12.167Z,46.85
2023-04-16T16:33:40.396Z,47.49
2023-04-16T16:36:10.905Z,47.43
2023-04-16T16:38:37.999Z,47.24
2023-04-16T16:41:04.594Z,47.38
2023-04-16T16:43:31.390Z,47.33
2023-04-16T16:45:57.933Z,46.78
2023-04-16T16:48:24.500Z,47.36
2023-04-16T16:50:50.996Z,46.64
2023-04-16T16:53:17.602Z,47.20
2023-04-16T16:55:44.213Z,47.10
2023-04-16T16:58:11.206Z,46.88
2023-04-16T17:00:38.104Z,46.87
2023-04-16T17:03:04.771Z,46.61
2023-04-16T17:05:31.664Z,46.61
2023-04-16T17:07:58.697Z,46.51
2023-04-16T17:10:25.353Z,46.92
2023-04-16T17:12:51.938Z,46.50
2023-04-16T17:15:21.391Z,46.39
2023-04-16T17:17:48.560Z,46.69
2023-04-16T17:20:15.722Z,46.48
2023-04-16T17:22:42.637Z,46.27
2023-04-16T17:25:09.514Z,46.88
2023-04-16T17:27:36.247Z,46.82
2023-04-16T17:30:04.964Z,46.65
2023-04-16T17:32:32.714Z,46.50
2023-04-16T17:35:00.454Z,46.29
2023-04-16T17:37:27.380Z,46.78
2023-04-16T17:39:53.963Z,46.17
2023-04-16T17:42:20.606Z,46.75
2023-04-16T17:44:47.304Z,46.82
2023-04-16T17:47:13.831Z,46.45
2023-04-16T17:49:40.600Z,46.34
2023-04-16T17:52:07.280Z,46.61
2023-04-16T17:54:33.816Z,46.39
2023-04-16T17:57:00.595Z,47.03
2023-04-16T17:59:27.481Z,46.22
2023-04-16T18:04:21.528Z,46.84
2023-04-16T18:06:48.429Z,46.93
2023-04-16T18:09:15.460Z,47.13
2023-04-16T18:11:42.103Z,47.32
2023-04-16T18:14:10.008Z,47.25
2023-04-16T18:16:36.781Z,47.25
2023-04-16T18:19:03.347Z,47.33
2023-04-16T18:21:30.493Z,47.54
2023-04-16T18:23:57.687Z,47.50
2023-04-16T18:26:25.324Z,47.29
2023-04-16T18:28:52.146Z,47.58
2023-04-16T18:31:21.168Z,47.38
2023-04-16T18:33:56.822Z,47.12
2023-04-16T18:36:24.453Z,47.66
2023-04-16T18:39:01.127Z,47.32
2023-04-16T18:41:28.681Z,47.07
2023-04-16T18:43:55.392Z,47.10
2023-04-16T18:46:21.971Z,47.06
2023-04-16T18:48:48.667Z,47.71
2023-04-16T18:51:16.579Z,47.79
2023-04-16T18:53:45.390Z,47.28
2023-04-16T18:56:12.241Z,47.49
2023-04-16T18:58:38.870Z,47.14
2023-04-16T19:01:07.820Z,47.01
2023-04-16T19:03:34.699Z,47.11
2023-04-16T19:06:01.592Z,47.34
2023-04-16T19:08:28.164Z,47.00
2023-04-16T19:10:54.736Z,47.45
2023-04-16T19:13:21.259Z,47.02
2023-04-16T19:15:47.931Z,47.64
2023-04-16T19:18:14.555Z,47.25
2023-04-16T19:20:41.129Z,47.00
2023-04-16T19:23:09.193Z,46.99
2023-04-16T19:25:38.772Z,47.27
2023-04-16T19:28:05.457Z,46.78
2023-04-16T19:30:32.028Z,46.99
2023-04-16T19:32:58.793Z,47.30
2023-04-16T19:35:25.711Z,47.42
2023-04-16T19:37:52.251Z,47.50
2023-04-16T19:40:18.942Z,47.54
2023-04-16T19:42:45.633Z,47.13
2023-04-16T19:45:12.333Z,47.38
2023-04-16T19:47:39.059Z,47.04
2023-04-16T19:50:06.429Z,46.78
2023-04-16T19:52:38.610Z,46.93
2023-04-16T19:55:06.629Z,46.88
2023-04-16T19:57:33.328Z,47.11
2023-04-16T20:00:00.107Z,46.93
2023-04-16T20:02:26.937Z,46.68
2023-04-16T20:04:53.626Z,46.43
2023-04-16T20:07:20.550Z,47.38
2023-04-16T20:09:47.233Z,47.29
2023-04-16T20:12:14.399Z,46.77
2023-04-16T20:14:41.947Z,46.76
2023-04-16T20:17:10.075Z,46.75
2023-04-16T20:19:40.351Z,46.69
2023-04-16T20:22:07.045Z,47.03
2023-04-16T20:24:34.329Z,47.16
2023-04-16T20:27:01.731Z,47.10
2023-04-16T20:29:28.402Z,46.99
2023-04-16T20:31:54.950Z,46.99
2023-04-16T20:34:21.466Z,47.15
2023-04-16T20:36:48.122Z,47.34
2023-04-16T20:39:14.753Z,46.72
2023-04-16T20:41:44.136Z,46.82
2023-04-16T20:44:18.037Z,46.85
2023-04-16T20:46:49.407Z,47.31
2023-04-16T20:49:17.600Z,47.28
2023-04-16T20:51:44.221Z,47.31
2023-04-16T20:54:10.958Z,47.52
2023-04-16T20:56:37.459Z,47.52
2023-04-16T20:59:04.032Z,47.59
2023-04-16T21:01:30.722Z,47.08
2023-04-16T21:03:57.638Z,47.31
2023-04-16T21:06:24.353Z,47.43
2023-04-16T21:08:51.130Z,47.40
2023-04-16T21:11:17.634Z,47.09
2023-04-16T21:13:44.288Z,47.58
2023-04-16T21:16:12.374Z,47.28
2023-04-16T21:18:39.132Z,47.52
2023-04-16T21:21:05.946Z,47.17
2023-04-16T21:23:32.588Z,47.67
2023-04-16T21:25:59.119Z,47.37
2023-04-16T21:28:25.787Z,47.39
2023-04-16T21:30:53.072Z,47.30
2023-04-16T21:33:19.564Z,47.61
2023-04-16T21:35:51.236Z,47.67
2023-04-16T21:38:17.849Z,47.36
2023-04-16T21:40:50.665Z,47.78
2023-04-16T21:43:17.889Z,47.67
2023-04-16T21:45:44.486Z,47.97
2023-04-16T21:48:11.103Z,47.50
2023-04-16T21:50:38.091Z,47.55
2023-04-16T21:53:06.415Z,47.50
2023-04-16T21:55:34.652Z,47.52
2023-04-16T21:58:01.683Z,48.20
2023-04-16T22:00:28.386Z,47.23
2023-04-16T22:03:00.111Z,47.63
2023-04-16T22:05:26.924Z,47.85
2023-04-16T22:07:53.456Z,47.51
2023-04-16T22:10:20.311Z,48.17
2023-04-16T22:12:46.858Z,48.06
2023-04-16T22:15:13.911Z,47.93
2023-04-16T22:17:40.931Z,47.30
2023-04-16T22:20:14.645Z,47.35
2023-04-16T22:22:41.842Z,47.66
2023-04-16T22:25:08.592Z,47.50
2023-04-16T22:27:35.425Z,47.97
2023-04-16T22:30:02.872Z,47.54
2023-04-16T22:32:30.320Z,48.17
2023-04-16T22:34:57.116Z,48.09
2023-04-16T22:37:23.615Z,47.79
2023-04-16T22:39:50.265Z,48.05
2023-04-16T22:42:16.776Z,48.03
2023-04-16T22:44:43.279Z,47.58
2023-04-16T22:47:09.822Z,47.75
2023-04-16T22:49:36.355Z,47.65
2023-04-16T22:52:03.058Z,47.86
2023-04-16T22:54:30.232Z,47.68
2023-04-16T22:56:57.559Z,47.67
2023-04-16T22:59:24.625Z,47.90
2023-04-16T23:01:52.092Z,47.94
2023-04-16T23:04:18.821Z,47.83
2023-04-16T23:06:46.390Z,48.04
2023-04-16T23:09:13.165Z,47.78
2023-04-16T23:11:39.960Z,47.89
2023-04-16T23:14:06.490Z,48.18
2023-04-16T23:16:33.043Z,48.03
2023-04-16T23:18:59.651Z,47.86
2023-04-16T23:21:26.212Z,47.53
2023-04-16T23:23:52.736Z,48.21
2023-04-16T23:26:19.246Z,48.02
2023-04-16T23:28:45.819Z,48.08
2023-04-16T23:31:12.381Z,47.73
2023-04-16T23:33:38.961Z,47.94
2023-04-16T23:36:08.151Z,48.05
2023-04-16T23:38:34.664Z,47.92
2023-04-16T23:41:01.161Z,48.06
2023-04-16T23:43:27.703Z,48.33
2023-04-16T23:45:54.273Z,47.74
2023-04-16T23:48:20.963Z,48.12
2023-04-16T23:50:47.522Z,47.83
2023-04-16T23:53:14.065Z,48.30
2023-04-16T23:55:40.599Z,48.08
2023-04-16T23:58:07.402Z,48.20
